<?xml version="1.0" encoding="UTF-8" standalone="no" ?>
<gpx xmlns="http://www.topografix.com/GPX/1/1" xmlns:xsi="http://www.w3.org/2001/XMLSchema-instance" xsi:schemaLocation="http://www.topografix.com/GPX/1/1 http://www.topografix.com/GPX/1/1/gpx.xsd" version="1.1" creator="VisuGPX - https://www.visugpx.com">
  <metadata>
    <name>Mont Saint-Martin au Chevalon de Voreppe </name>
    <desc><![CDATA[magnifique single descendant, typé enduro, peu difficile.]]></desc>
  </metadata>
  <trk>
    <name><![CDATA[mont saint martin chevallon]]></name>
    <trkseg>
      <trkpt lat="45.27155" lon="5.67442">
        <ele>747</ele>
        <time>2014-05-08T13:01:00Z</time>
      </trkpt>
      <trkpt lat="45.27156" lon="5.67438">
        <ele>749</ele>
        <time>2014-05-08T13:01:13Z</time>
      </trkpt>
      <trkpt lat="45.27159" lon="5.67437">
        <ele>749</ele>
        <time>2014-05-08T13:01:17Z</time>
      </trkpt>
      <trkpt lat="45.27161" lon="5.67432">
        <ele>747</ele>
        <time>2014-05-08T13:01:21Z</time>
      </trkpt>
      <trkpt lat="45.2716" lon="5.67435">
        <ele>746</ele>
        <time>2014-05-08T13:01:29Z</time>
      </trkpt>
      <trkpt lat="45.27163" lon="5.67436">
        <ele>746</ele>
        <time>2014-05-08T13:01:57Z</time>
      </trkpt>
      <trkpt lat="45.27168" lon="5.67422">
        <ele>745</ele>
        <time>2014-05-08T13:02:01Z</time>
      </trkpt>
      <trkpt lat="45.27174" lon="5.67411">
        <ele>745</ele>
        <time>2014-05-08T13:02:05Z</time>
      </trkpt>
      <trkpt lat="45.27174" lon="5.67409">
        <ele>744</ele>
        <time>2014-05-08T13:02:09Z</time>
      </trkpt>
      <trkpt lat="45.27178" lon="5.67402">
        <ele>743</ele>
        <time>2014-05-08T13:02:13Z</time>
      </trkpt>
      <trkpt lat="45.27184" lon="5.67387">
        <ele>739</ele>
        <time>2014-05-08T13:02:17Z</time>
      </trkpt>
      <trkpt lat="45.27192" lon="5.67366">
        <ele>737</ele>
        <time>2014-05-08T13:02:21Z</time>
      </trkpt>
      <trkpt lat="45.27195" lon="5.67346">
        <ele>734</ele>
        <time>2014-05-08T13:02:25Z</time>
      </trkpt>
      <trkpt lat="45.27198" lon="5.67332">
        <ele>737</ele>
        <time>2014-05-08T13:02:29Z</time>
      </trkpt>
      <trkpt lat="45.27199" lon="5.67314">
        <ele>736</ele>
        <time>2014-05-08T13:02:33Z</time>
      </trkpt>
      <trkpt lat="45.27197" lon="5.67291">
        <ele>734</ele>
        <time>2014-05-08T13:02:37Z</time>
      </trkpt>
      <trkpt lat="45.27198" lon="5.67279">
        <ele>733</ele>
        <time>2014-05-08T13:02:41Z</time>
      </trkpt>
      <trkpt lat="45.27197" lon="5.67266">
        <ele>732</ele>
        <time>2014-05-08T13:02:45Z</time>
      </trkpt>
      <trkpt lat="45.27195" lon="5.67249">
        <ele>732</ele>
        <time>2014-05-08T13:02:49Z</time>
      </trkpt>
      <trkpt lat="45.27192" lon="5.67227">
        <ele>726</ele>
        <time>2014-05-08T13:02:53Z</time>
      </trkpt>
      <trkpt lat="45.27187" lon="5.672">
        <ele>723</ele>
        <time>2014-05-08T13:02:57Z</time>
      </trkpt>
      <trkpt lat="45.2718" lon="5.67174">
        <ele>725</ele>
        <time>2014-05-08T13:03:01Z</time>
      </trkpt>
      <trkpt lat="45.27171" lon="5.67158">
        <ele>724</ele>
        <time>2014-05-08T13:03:05Z</time>
      </trkpt>
      <trkpt lat="45.2716" lon="5.67143">
        <ele>722</ele>
        <time>2014-05-08T13:03:09Z</time>
      </trkpt>
      <trkpt lat="45.27155" lon="5.67129">
        <ele>721</ele>
        <time>2014-05-08T13:03:13Z</time>
      </trkpt>
      <trkpt lat="45.27151" lon="5.67113">
        <ele>721</ele>
        <time>2014-05-08T13:03:17Z</time>
      </trkpt>
      <trkpt lat="45.27144" lon="5.67097">
        <ele>716</ele>
        <time>2014-05-08T13:03:21Z</time>
      </trkpt>
      <trkpt lat="45.27139" lon="5.67077">
        <ele>713</ele>
        <time>2014-05-08T13:03:25Z</time>
      </trkpt>
      <trkpt lat="45.27129" lon="5.67058">
        <ele>708</ele>
        <time>2014-05-08T13:03:29Z</time>
      </trkpt>
      <trkpt lat="45.27117" lon="5.67041">
        <ele>703</ele>
        <time>2014-05-08T13:03:33Z</time>
      </trkpt>
      <trkpt lat="45.27111" lon="5.67032">
        <ele>700</ele>
        <time>2014-05-08T13:03:37Z</time>
      </trkpt>
      <trkpt lat="45.27111" lon="5.67027">
        <ele>700</ele>
        <time>2014-05-08T13:03:41Z</time>
      </trkpt>
      <trkpt lat="45.27108" lon="5.67015">
        <ele>699</ele>
        <time>2014-05-08T13:03:45Z</time>
      </trkpt>
      <trkpt lat="45.27087" lon="5.67004">
        <ele>700</ele>
        <time>2014-05-08T13:03:49Z</time>
      </trkpt>
      <trkpt lat="45.27078" lon="5.66993">
        <ele>695</ele>
        <time>2014-05-08T13:03:53Z</time>
      </trkpt>
      <trkpt lat="45.27074" lon="5.66972">
        <ele>689</ele>
        <time>2014-05-08T13:03:57Z</time>
      </trkpt>
      <trkpt lat="45.2707" lon="5.66945">
        <ele>685</ele>
        <time>2014-05-08T13:04:01Z</time>
      </trkpt>
      <trkpt lat="45.27064" lon="5.66924">
        <ele>684</ele>
        <time>2014-05-08T13:04:05Z</time>
      </trkpt>
      <trkpt lat="45.27054" lon="5.66906">
        <ele>686</ele>
        <time>2014-05-08T13:04:09Z</time>
      </trkpt>
      <trkpt lat="45.27039" lon="5.66888">
        <ele>682</ele>
        <time>2014-05-08T13:04:13Z</time>
      </trkpt>
      <trkpt lat="45.2703" lon="5.66873">
        <ele>677</ele>
        <time>2014-05-08T13:04:17Z</time>
      </trkpt>
      <trkpt lat="45.27028" lon="5.66867">
        <ele>672</ele>
        <time>2014-05-08T13:04:21Z</time>
      </trkpt>
      <trkpt lat="45.27017" lon="5.6686">
        <ele>668</ele>
        <time>2014-05-08T13:04:25Z</time>
      </trkpt>
      <trkpt lat="45.27004" lon="5.6685">
        <ele>666</ele>
        <time>2014-05-08T13:04:29Z</time>
      </trkpt>
      <trkpt lat="45.26991" lon="5.66844">
        <ele>662</ele>
        <time>2014-05-08T13:04:33Z</time>
      </trkpt>
      <trkpt lat="45.26983" lon="5.66838">
        <ele>660</ele>
        <time>2014-05-08T13:04:37Z</time>
      </trkpt>
      <trkpt lat="45.26976" lon="5.66833">
        <ele>657</ele>
        <time>2014-05-08T13:04:41Z</time>
      </trkpt>
      <trkpt lat="45.26968" lon="5.66828">
        <ele>654</ele>
        <time>2014-05-08T13:04:45Z</time>
      </trkpt>
      <trkpt lat="45.26963" lon="5.66823">
        <ele>650</ele>
        <time>2014-05-08T13:04:49Z</time>
      </trkpt>
      <trkpt lat="45.26952" lon="5.66804">
        <ele>648</ele>
        <time>2014-05-08T13:04:53Z</time>
      </trkpt>
      <trkpt lat="45.26945" lon="5.66789">
        <ele>645</ele>
        <time>2014-05-08T13:04:57Z</time>
      </trkpt>
      <trkpt lat="45.26934" lon="5.66789">
        <ele>642</ele>
        <time>2014-05-08T13:05:01Z</time>
      </trkpt>
      <trkpt lat="45.26919" lon="5.6679">
        <ele>638</ele>
        <time>2014-05-08T13:05:05Z</time>
      </trkpt>
      <trkpt lat="45.26915" lon="5.6679">
        <ele>636</ele>
        <time>2014-05-08T13:05:09Z</time>
      </trkpt>
      <trkpt lat="45.26918" lon="5.66789">
        <ele>637</ele>
        <time>2014-05-08T13:05:13Z</time>
      </trkpt>
      <trkpt lat="45.26924" lon="5.66791">
        <ele>638</ele>
        <time>2014-05-08T13:05:17Z</time>
      </trkpt>
      <trkpt lat="45.26931" lon="5.6679">
        <ele>637</ele>
        <time>2014-05-08T13:05:21Z</time>
      </trkpt>
      <trkpt lat="45.26942" lon="5.66782">
        <ele>637</ele>
        <time>2014-05-08T13:05:25Z</time>
      </trkpt>
      <trkpt lat="45.26948" lon="5.66771">
        <ele>637</ele>
        <time>2014-05-08T13:05:29Z</time>
      </trkpt>
      <trkpt lat="45.26954" lon="5.66759">
        <ele>636</ele>
        <time>2014-05-08T13:05:33Z</time>
      </trkpt>
      <trkpt lat="45.26957" lon="5.6675">
        <ele>634</ele>
        <time>2014-05-08T13:05:37Z</time>
      </trkpt>
      <trkpt lat="45.26962" lon="5.6675">
        <ele>633</ele>
        <time>2014-05-08T13:05:41Z</time>
      </trkpt>
      <trkpt lat="45.26972" lon="5.66754">
        <ele>632</ele>
        <time>2014-05-08T13:05:45Z</time>
      </trkpt>
      <trkpt lat="45.26978" lon="5.66748">
        <ele>628</ele>
        <time>2014-05-08T13:05:49Z</time>
      </trkpt>
      <trkpt lat="45.26987" lon="5.66752">
        <ele>622</ele>
        <time>2014-05-08T13:05:53Z</time>
      </trkpt>
      <trkpt lat="45.26997" lon="5.66757">
        <ele>625</ele>
        <time>2014-05-08T13:05:57Z</time>
      </trkpt>
      <trkpt lat="45.27001" lon="5.66759">
        <ele>622</ele>
        <time>2014-05-08T13:06:01Z</time>
      </trkpt>
      <trkpt lat="45.27005" lon="5.66759">
        <ele>619</ele>
        <time>2014-05-08T13:06:05Z</time>
      </trkpt>
      <trkpt lat="45.27008" lon="5.66759">
        <ele>625</ele>
        <time>2014-05-08T13:06:09Z</time>
      </trkpt>
      <trkpt lat="45.27011" lon="5.6676">
        <ele>624</ele>
        <time>2014-05-08T13:06:13Z</time>
      </trkpt>
      <trkpt lat="45.27013" lon="5.66761">
        <ele>624</ele>
        <time>2014-05-08T13:06:17Z</time>
      </trkpt>
      <trkpt lat="45.27016" lon="5.66758">
        <ele>621</ele>
        <time>2014-05-08T13:06:21Z</time>
      </trkpt>
      <trkpt lat="45.27018" lon="5.66754">
        <ele>620</ele>
        <time>2014-05-08T13:06:25Z</time>
      </trkpt>
      <trkpt lat="45.27021" lon="5.66753">
        <ele>621</ele>
        <time>2014-05-08T13:06:29Z</time>
      </trkpt>
      <trkpt lat="45.27027" lon="5.66748">
        <ele>623</ele>
        <time>2014-05-08T13:06:33Z</time>
      </trkpt>
      <trkpt lat="45.2703" lon="5.66745">
        <ele>618</ele>
        <time>2014-05-08T13:06:37Z</time>
      </trkpt>
      <trkpt lat="45.27034" lon="5.66743">
        <ele>621</ele>
        <time>2014-05-08T13:06:41Z</time>
      </trkpt>
      <trkpt lat="45.27039" lon="5.66732">
        <ele>618</ele>
        <time>2014-05-08T13:06:45Z</time>
      </trkpt>
      <trkpt lat="45.27044" lon="5.66727">
        <ele>615</ele>
        <time>2014-05-08T13:06:49Z</time>
      </trkpt>
      <trkpt lat="45.27045" lon="5.66722">
        <ele>615</ele>
        <time>2014-05-08T13:06:53Z</time>
      </trkpt>
      <trkpt lat="45.27049" lon="5.66714">
        <ele>613</ele>
        <time>2014-05-08T13:06:57Z</time>
      </trkpt>
      <trkpt lat="45.27049" lon="5.667">
        <ele>609</ele>
        <time>2014-05-08T13:07:01Z</time>
      </trkpt>
      <trkpt lat="45.2705" lon="5.66693">
        <ele>607</ele>
        <time>2014-05-08T13:07:05Z</time>
      </trkpt>
      <trkpt lat="45.27048" lon="5.66695">
        <ele>607</ele>
        <time>2014-05-08T13:07:09Z</time>
      </trkpt>
      <trkpt lat="45.27042" lon="5.66697">
        <ele>605</ele>
        <time>2014-05-08T13:07:13Z</time>
      </trkpt>
      <trkpt lat="45.27034" lon="5.66702">
        <ele>605</ele>
        <time>2014-05-08T13:07:17Z</time>
      </trkpt>
      <trkpt lat="45.27026" lon="5.66708">
        <ele>605</ele>
        <time>2014-05-08T13:07:21Z</time>
      </trkpt>
      <trkpt lat="45.27019" lon="5.66711">
        <ele>603</ele>
        <time>2014-05-08T13:07:25Z</time>
      </trkpt>
      <trkpt lat="45.27013" lon="5.66715">
        <ele>597</ele>
        <time>2014-05-08T13:07:29Z</time>
      </trkpt>
      <trkpt lat="45.27007" lon="5.66718">
        <ele>595</ele>
        <time>2014-05-08T13:07:33Z</time>
      </trkpt>
      <trkpt lat="45.27005" lon="5.66714">
        <ele>595</ele>
        <time>2014-05-08T13:07:37Z</time>
      </trkpt>
      <trkpt lat="45.27005" lon="5.66714">
        <ele>597</ele>
        <time>2014-05-08T13:07:41Z</time>
      </trkpt>
      <trkpt lat="45.27006" lon="5.66714">
        <ele>599</ele>
        <time>2014-05-08T13:07:57Z</time>
      </trkpt>
      <trkpt lat="45.27008" lon="5.66698">
        <ele>601</ele>
        <time>2014-05-08T13:08:01Z</time>
      </trkpt>
      <trkpt lat="45.27008" lon="5.66687">
        <ele>600</ele>
        <time>2014-05-08T13:08:05Z</time>
      </trkpt>
      <trkpt lat="45.27004" lon="5.66681">
        <ele>602</ele>
        <time>2014-05-08T13:08:09Z</time>
      </trkpt>
      <trkpt lat="45.26999" lon="5.66665">
        <ele>604</ele>
        <time>2014-05-08T13:08:13Z</time>
      </trkpt>
      <trkpt lat="45.26995" lon="5.66655">
        <ele>601</ele>
        <time>2014-05-08T13:08:17Z</time>
      </trkpt>
      <trkpt lat="45.26993" lon="5.6665">
        <ele>599</ele>
        <time>2014-05-08T13:08:21Z</time>
      </trkpt>
      <trkpt lat="45.26991" lon="5.66642">
        <ele>598</ele>
        <time>2014-05-08T13:08:25Z</time>
      </trkpt>
      <trkpt lat="45.26983" lon="5.66633">
        <ele>594</ele>
        <time>2014-05-08T13:08:29Z</time>
      </trkpt>
      <trkpt lat="45.26976" lon="5.66626">
        <ele>591</ele>
        <time>2014-05-08T13:08:33Z</time>
      </trkpt>
      <trkpt lat="45.26973" lon="5.66619">
        <ele>590</ele>
        <time>2014-05-08T13:08:37Z</time>
      </trkpt>
      <trkpt lat="45.26962" lon="5.6661">
        <ele>586</ele>
        <time>2014-05-08T13:09:13Z</time>
      </trkpt>
      <trkpt lat="45.26967" lon="5.66603">
        <ele>586</ele>
        <time>2014-05-08T13:09:17Z</time>
      </trkpt>
      <trkpt lat="45.26975" lon="5.66598">
        <ele>585</ele>
        <time>2014-05-08T13:09:21Z</time>
      </trkpt>
      <trkpt lat="45.26983" lon="5.66588">
        <ele>586</ele>
        <time>2014-05-08T13:09:25Z</time>
      </trkpt>
      <trkpt lat="45.26989" lon="5.66579">
        <ele>582</ele>
        <time>2014-05-08T13:09:29Z</time>
      </trkpt>
      <trkpt lat="45.26998" lon="5.6656">
        <ele>576</ele>
        <time>2014-05-08T13:09:33Z</time>
      </trkpt>
      <trkpt lat="45.27007" lon="5.66549">
        <ele>577</ele>
        <time>2014-05-08T13:09:37Z</time>
      </trkpt>
      <trkpt lat="45.27016" lon="5.66539">
        <ele>576</ele>
        <time>2014-05-08T13:09:41Z</time>
      </trkpt>
      <trkpt lat="45.27033" lon="5.66532">
        <ele>570</ele>
        <time>2014-05-08T13:09:45Z</time>
      </trkpt>
      <trkpt lat="45.27042" lon="5.66534">
        <ele>572</ele>
        <time>2014-05-08T13:09:49Z</time>
      </trkpt>
      <trkpt lat="45.27043" lon="5.6653">
        <ele>568</ele>
        <time>2014-05-08T13:09:53Z</time>
      </trkpt>
      <trkpt lat="45.27046" lon="5.66527">
        <ele>561</ele>
        <time>2014-05-08T13:09:57Z</time>
      </trkpt>
      <trkpt lat="45.27042" lon="5.6652">
        <ele>555</ele>
        <time>2014-05-08T13:10:01Z</time>
      </trkpt>
      <trkpt lat="45.27034" lon="5.66515">
        <ele>552</ele>
        <time>2014-05-08T13:10:05Z</time>
      </trkpt>
      <trkpt lat="45.27028" lon="5.66506">
        <ele>552</ele>
        <time>2014-05-08T13:10:09Z</time>
      </trkpt>
      <trkpt lat="45.27023" lon="5.665">
        <ele>551</ele>
        <time>2014-05-08T13:10:13Z</time>
      </trkpt>
      <trkpt lat="45.27021" lon="5.66496">
        <ele>551</ele>
        <time>2014-05-08T13:10:17Z</time>
      </trkpt>
      <trkpt lat="45.2702" lon="5.66493">
        <ele>552</ele>
        <time>2014-05-08T13:10:21Z</time>
      </trkpt>
      <trkpt lat="45.2703" lon="5.66488">
        <ele>553</ele>
        <time>2014-05-08T13:10:25Z</time>
      </trkpt>
      <trkpt lat="45.2704" lon="5.66482">
        <ele>552</ele>
        <time>2014-05-08T13:10:29Z</time>
      </trkpt>
      <trkpt lat="45.27047" lon="5.66471">
        <ele>547</ele>
        <time>2014-05-08T13:10:33Z</time>
      </trkpt>
      <trkpt lat="45.27059" lon="5.66455">
        <ele>544</ele>
        <time>2014-05-08T13:10:37Z</time>
      </trkpt>
      <trkpt lat="45.2707" lon="5.66447">
        <ele>539</ele>
        <time>2014-05-08T13:10:41Z</time>
      </trkpt>
      <trkpt lat="45.27081" lon="5.66448">
        <ele>537</ele>
        <time>2014-05-08T13:10:45Z</time>
      </trkpt>
      <trkpt lat="45.27092" lon="5.66446">
        <ele>537</ele>
        <time>2014-05-08T13:10:49Z</time>
      </trkpt>
      <trkpt lat="45.271" lon="5.66448">
        <ele>536</ele>
        <time>2014-05-08T13:10:53Z</time>
      </trkpt>
      <trkpt lat="45.27107" lon="5.66449">
        <ele>536</ele>
        <time>2014-05-08T13:10:57Z</time>
      </trkpt>
      <trkpt lat="45.27114" lon="5.6644">
        <ele>532</ele>
        <time>2014-05-08T13:11:01Z</time>
      </trkpt>
      <trkpt lat="45.27123" lon="5.66423">
        <ele>530</ele>
        <time>2014-05-08T13:11:05Z</time>
      </trkpt>
      <trkpt lat="45.27133" lon="5.66404">
        <ele>526</ele>
        <time>2014-05-08T13:11:09Z</time>
      </trkpt>
      <trkpt lat="45.27147" lon="5.66398">
        <ele>520</ele>
        <time>2014-05-08T13:11:13Z</time>
      </trkpt>
      <trkpt lat="45.27161" lon="5.66398">
        <ele>516</ele>
        <time>2014-05-08T13:11:17Z</time>
      </trkpt>
      <trkpt lat="45.27175" lon="5.66394">
        <ele>510</ele>
        <time>2014-05-08T13:11:21Z</time>
      </trkpt>
      <trkpt lat="45.27187" lon="5.66391">
        <ele>505</ele>
        <time>2014-05-08T13:11:25Z</time>
      </trkpt>
      <trkpt lat="45.27193" lon="5.66389">
        <ele>502</ele>
        <time>2014-05-08T13:11:29Z</time>
      </trkpt>
      <trkpt lat="45.27197" lon="5.66389">
        <ele>502</ele>
        <time>2014-05-08T13:11:33Z</time>
      </trkpt>
      <trkpt lat="45.27211" lon="5.66387">
        <ele>495</ele>
        <time>2014-05-08T13:11:37Z</time>
      </trkpt>
      <trkpt lat="45.27224" lon="5.66381">
        <ele>492</ele>
        <time>2014-05-08T13:11:41Z</time>
      </trkpt>
      <trkpt lat="45.27236" lon="5.66371">
        <ele>486</ele>
        <time>2014-05-08T13:11:45Z</time>
      </trkpt>
      <trkpt lat="45.27244" lon="5.6637">
        <ele>486</ele>
        <time>2014-05-08T13:11:49Z</time>
      </trkpt>
      <trkpt lat="45.27256" lon="5.6636">
        <ele>484</ele>
        <time>2014-05-08T13:11:53Z</time>
      </trkpt>
      <trkpt lat="45.2727" lon="5.66347">
        <ele>485</ele>
        <time>2014-05-08T13:11:57Z</time>
      </trkpt>
      <trkpt lat="45.27278" lon="5.6633">
        <ele>479</ele>
        <time>2014-05-08T13:12:01Z</time>
      </trkpt>
      <trkpt lat="45.27292" lon="5.66303">
        <ele>479</ele>
        <time>2014-05-08T13:12:05Z</time>
      </trkpt>
      <trkpt lat="45.27309" lon="5.66278">
        <ele>477</ele>
        <time>2014-05-08T13:12:09Z</time>
      </trkpt>
      <trkpt lat="45.27327" lon="5.66251">
        <ele>473</ele>
        <time>2014-05-08T13:12:13Z</time>
      </trkpt>
      <trkpt lat="45.2734" lon="5.6623">
        <ele>472</ele>
        <time>2014-05-08T13:12:17Z</time>
      </trkpt>
      <trkpt lat="45.27353" lon="5.66209">
        <ele>471</ele>
        <time>2014-05-08T13:12:21Z</time>
      </trkpt>
      <trkpt lat="45.27364" lon="5.66192">
        <ele>475</ele>
        <time>2014-05-08T13:12:25Z</time>
      </trkpt>
      <trkpt lat="45.27372" lon="5.66177">
        <ele>472</ele>
        <time>2014-05-08T13:12:29Z</time>
      </trkpt>
      <trkpt lat="45.27375" lon="5.66165">
        <ele>469</ele>
        <time>2014-05-08T13:12:33Z</time>
      </trkpt>
      <trkpt lat="45.2738" lon="5.66154">
        <ele>465</ele>
        <time>2014-05-08T13:12:37Z</time>
      </trkpt>
      <trkpt lat="45.27388" lon="5.66144">
        <ele>464</ele>
        <time>2014-05-08T13:12:41Z</time>
      </trkpt>
      <trkpt lat="45.27402" lon="5.66132">
        <ele>463</ele>
        <time>2014-05-08T13:12:45Z</time>
      </trkpt>
      <trkpt lat="45.27412" lon="5.66118">
        <ele>460</ele>
        <time>2014-05-08T13:12:49Z</time>
      </trkpt>
      <trkpt lat="45.27421" lon="5.66104">
        <ele>455</ele>
        <time>2014-05-08T13:12:53Z</time>
      </trkpt>
      <trkpt lat="45.27432" lon="5.66093">
        <ele>455</ele>
        <time>2014-05-08T13:12:57Z</time>
      </trkpt>
      <trkpt lat="45.27448" lon="5.66087">
        <ele>454</ele>
        <time>2014-05-08T13:13:01Z</time>
      </trkpt>
      <trkpt lat="45.27462" lon="5.6608">
        <ele>449</ele>
        <time>2014-05-08T13:13:05Z</time>
      </trkpt>
      <trkpt lat="45.27476" lon="5.66074">
        <ele>450</ele>
        <time>2014-05-08T13:13:09Z</time>
      </trkpt>
      <trkpt lat="45.27489" lon="5.66062">
        <ele>448</ele>
        <time>2014-05-08T13:13:13Z</time>
      </trkpt>
      <trkpt lat="45.27494" lon="5.66049">
        <ele>444</ele>
        <time>2014-05-08T13:13:17Z</time>
      </trkpt>
      <trkpt lat="45.27501" lon="5.66036">
        <ele>441</ele>
        <time>2014-05-08T13:13:21Z</time>
      </trkpt>
      <trkpt lat="45.27506" lon="5.66021">
        <ele>436</ele>
        <time>2014-05-08T13:13:25Z</time>
      </trkpt>
      <trkpt lat="45.27511" lon="5.6601">
        <ele>433</ele>
        <time>2014-05-08T13:13:29Z</time>
      </trkpt>
      <trkpt lat="45.27518" lon="5.66">
        <ele>431</ele>
        <time>2014-05-08T13:13:33Z</time>
      </trkpt>
      <trkpt lat="45.27528" lon="5.65991">
        <ele>432</ele>
        <time>2014-05-08T13:13:37Z</time>
      </trkpt>
      <trkpt lat="45.2754" lon="5.65989">
        <ele>434</ele>
        <time>2014-05-08T13:13:41Z</time>
      </trkpt>
      <trkpt lat="45.27548" lon="5.65982">
        <ele>436</ele>
        <time>2014-05-08T13:13:45Z</time>
      </trkpt>
      <trkpt lat="45.27554" lon="5.6597">
        <ele>436</ele>
        <time>2014-05-08T13:13:49Z</time>
      </trkpt>
      <trkpt lat="45.27561" lon="5.65964">
        <ele>437</ele>
        <time>2014-05-08T13:13:53Z</time>
      </trkpt>
      <trkpt lat="45.27567" lon="5.65959">
        <ele>435</ele>
        <time>2014-05-08T13:13:57Z</time>
      </trkpt>
      <trkpt lat="45.27575" lon="5.65952">
        <ele>432</ele>
        <time>2014-05-08T13:14:01Z</time>
      </trkpt>
      <trkpt lat="45.27579" lon="5.65945">
        <ele>433</ele>
        <time>2014-05-08T13:14:05Z</time>
      </trkpt>
      <trkpt lat="45.27585" lon="5.65944">
        <ele>433</ele>
        <time>2014-05-08T13:14:09Z</time>
      </trkpt>
      <trkpt lat="45.27585" lon="5.65939">
        <ele>434</ele>
        <time>2014-05-08T13:14:13Z</time>
      </trkpt>
      <trkpt lat="45.27584" lon="5.6593">
        <ele>433</ele>
        <time>2014-05-08T13:14:17Z</time>
      </trkpt>
      <trkpt lat="45.27589" lon="5.65915">
        <ele>430</ele>
        <time>2014-05-08T13:14:21Z</time>
      </trkpt>
      <trkpt lat="45.27593" lon="5.65895">
        <ele>426</ele>
        <time>2014-05-08T13:14:25Z</time>
      </trkpt>
      <trkpt lat="45.27593" lon="5.65875">
        <ele>414</ele>
        <time>2014-05-08T13:14:29Z</time>
      </trkpt>
      <trkpt lat="45.27589" lon="5.65866">
        <ele>413</ele>
        <time>2014-05-08T13:14:33Z</time>
      </trkpt>
      <trkpt lat="45.27586" lon="5.65858">
        <ele>410</ele>
        <time>2014-05-08T13:14:37Z</time>
      </trkpt>
      <trkpt lat="45.27589" lon="5.65856">
        <ele>408</ele>
        <time>2014-05-08T13:14:41Z</time>
      </trkpt>
      <trkpt lat="45.27589" lon="5.65851">
        <ele>408</ele>
        <time>2014-05-08T13:14:57Z</time>
      </trkpt>
      <trkpt lat="45.27594" lon="5.65842">
        <ele>401</ele>
        <time>2014-05-08T13:15:01Z</time>
      </trkpt>
      <trkpt lat="45.27601" lon="5.6583">
        <ele>398</ele>
        <time>2014-05-08T13:15:05Z</time>
      </trkpt>
      <trkpt lat="45.27604" lon="5.65817">
        <ele>392</ele>
        <time>2014-05-08T13:15:09Z</time>
      </trkpt>
      <trkpt lat="45.27615" lon="5.65815">
        <ele>390</ele>
        <time>2014-05-08T13:15:13Z</time>
      </trkpt>
      <trkpt lat="45.27625" lon="5.65811">
        <ele>392</ele>
        <time>2014-05-08T13:15:17Z</time>
      </trkpt>
      <trkpt lat="45.27634" lon="5.65806">
        <ele>389</ele>
        <time>2014-05-08T13:15:21Z</time>
      </trkpt>
      <trkpt lat="45.27639" lon="5.65796">
        <ele>386</ele>
        <time>2014-05-08T13:15:25Z</time>
      </trkpt>
      <trkpt lat="45.27644" lon="5.65785">
        <ele>382</ele>
        <time>2014-05-08T13:15:29Z</time>
      </trkpt>
      <trkpt lat="45.27647" lon="5.65773">
        <ele>377</ele>
        <time>2014-05-08T13:15:33Z</time>
      </trkpt>
      <trkpt lat="45.27648" lon="5.65765">
        <ele>375</ele>
        <time>2014-05-08T13:15:37Z</time>
      </trkpt>
      <trkpt lat="45.27649" lon="5.65762">
        <ele>374</ele>
        <time>2014-05-08T13:15:49Z</time>
      </trkpt>
      <trkpt lat="45.27644" lon="5.65755">
        <ele>372</ele>
        <time>2014-05-08T13:15:53Z</time>
      </trkpt>
      <trkpt lat="45.27642" lon="5.65746">
        <ele>371</ele>
        <time>2014-05-08T13:15:57Z</time>
      </trkpt>
      <trkpt lat="45.27638" lon="5.6574">
        <ele>367</ele>
        <time>2014-05-08T13:16:01Z</time>
      </trkpt>
      <trkpt lat="45.27637" lon="5.65733">
        <ele>366</ele>
        <time>2014-05-08T13:16:21Z</time>
      </trkpt>
      <trkpt lat="45.27639" lon="5.65729">
        <ele>361</ele>
        <time>2014-05-08T13:16:25Z</time>
      </trkpt>
      <trkpt lat="45.27643" lon="5.65721">
        <ele>357</ele>
        <time>2014-05-08T13:16:29Z</time>
      </trkpt>
      <trkpt lat="45.2765" lon="5.65711">
        <ele>355</ele>
        <time>2014-05-08T13:16:33Z</time>
      </trkpt>
      <trkpt lat="45.27661" lon="5.65699">
        <ele>351</ele>
        <time>2014-05-08T13:16:37Z</time>
      </trkpt>
      <trkpt lat="45.27669" lon="5.65688">
        <ele>348</ele>
        <time>2014-05-08T13:16:41Z</time>
      </trkpt>
      <trkpt lat="45.27675" lon="5.65677">
        <ele>344</ele>
        <time>2014-05-08T13:16:49Z</time>
      </trkpt>
      <trkpt lat="45.27679" lon="5.65661">
        <ele>343</ele>
        <time>2014-05-08T13:17:05Z</time>
      </trkpt>
      <trkpt lat="45.27684" lon="5.65665">
        <ele>342</ele>
        <time>2014-05-08T13:17:09Z</time>
      </trkpt>
      <trkpt lat="45.2769" lon="5.65659">
        <ele>344</ele>
        <time>2014-05-08T13:17:13Z</time>
      </trkpt>
      <trkpt lat="45.27696" lon="5.65642">
        <ele>339</ele>
        <time>2014-05-08T13:17:17Z</time>
      </trkpt>
      <trkpt lat="45.277" lon="5.65623">
        <ele>337</ele>
        <time>2014-05-08T13:17:21Z</time>
      </trkpt>
      <trkpt lat="45.27703" lon="5.65605">
        <ele>334</ele>
        <time>2014-05-08T13:17:25Z</time>
      </trkpt>
      <trkpt lat="45.2771" lon="5.65588">
        <ele>334</ele>
        <time>2014-05-08T13:17:29Z</time>
      </trkpt>
      <trkpt lat="45.27718" lon="5.65544">
        <ele>328</ele>
        <time>2014-05-08T13:17:33Z</time>
      </trkpt>
      <trkpt lat="45.27717" lon="5.65531">
        <ele>318</ele>
        <time>2014-05-08T13:17:37Z</time>
      </trkpt>
      <trkpt lat="45.27715" lon="5.65527">
        <ele>314</ele>
        <time>2014-05-08T13:17:41Z</time>
      </trkpt>
      <trkpt lat="45.27712" lon="5.65523">
        <ele>310</ele>
        <time>2014-05-08T13:17:45Z</time>
      </trkpt>
      <trkpt lat="45.27707" lon="5.65517">
        <ele>308</ele>
        <time>2014-05-08T13:17:49Z</time>
      </trkpt>
      <trkpt lat="45.27704" lon="5.65508">
        <ele>305</ele>
        <time>2014-05-08T13:17:53Z</time>
      </trkpt>
      <trkpt lat="45.277" lon="5.65502">
        <ele>305</ele>
        <time>2014-05-08T13:17:57Z</time>
      </trkpt>
      <trkpt lat="45.277" lon="5.65498">
        <ele>305</ele>
        <time>2014-05-08T13:18:01Z</time>
      </trkpt>
      <trkpt lat="45.27699" lon="5.6549">
        <ele>302</ele>
        <time>2014-05-08T13:18:05Z</time>
      </trkpt>
      <trkpt lat="45.27699" lon="5.65478">
        <ele>303</ele>
        <time>2014-05-08T13:18:17Z</time>
      </trkpt>
      <trkpt lat="45.27702" lon="5.65463">
        <ele>300</ele>
        <time>2014-05-08T13:18:21Z</time>
      </trkpt>
      <trkpt lat="45.27691" lon="5.65447">
        <ele>291</ele>
        <time>2014-05-08T13:18:25Z</time>
      </trkpt>
      <trkpt lat="45.27685" lon="5.65435">
        <ele>286</ele>
        <time>2014-05-08T13:18:29Z</time>
      </trkpt>
      <trkpt lat="45.27674" lon="5.65433">
        <ele>282</ele>
        <time>2014-05-08T13:18:33Z</time>
      </trkpt>
      <trkpt lat="45.27664" lon="5.65426">
        <ele>281</ele>
        <time>2014-05-08T13:18:37Z</time>
      </trkpt>
      <trkpt lat="45.27664" lon="5.65417">
        <ele>282</ele>
        <time>2014-05-08T13:18:41Z</time>
      </trkpt>
      <trkpt lat="45.27667" lon="5.65404">
        <ele>288</ele>
        <time>2014-05-08T13:18:45Z</time>
      </trkpt>
      <trkpt lat="45.2767" lon="5.65392">
        <ele>287</ele>
        <time>2014-05-08T13:18:49Z</time>
      </trkpt>
      <trkpt lat="45.27676" lon="5.65374">
        <ele>285</ele>
        <time>2014-05-08T13:18:53Z</time>
      </trkpt>
      <trkpt lat="45.27691" lon="5.65354">
        <ele>279</ele>
        <time>2014-05-08T13:18:57Z</time>
      </trkpt>
      <trkpt lat="45.27699" lon="5.6534">
        <ele>277</ele>
        <time>2014-05-08T13:19:01Z</time>
      </trkpt>
      <trkpt lat="45.27702" lon="5.65336">
        <ele>275</ele>
        <time>2014-05-08T13:19:05Z</time>
      </trkpt>
      <trkpt lat="45.27719" lon="5.65329">
        <ele>271</ele>
        <time>2014-05-08T13:19:25Z</time>
      </trkpt>
      <trkpt lat="45.27728" lon="5.65324">
        <ele>272</ele>
        <time>2014-05-08T13:19:29Z</time>
      </trkpt>
      <trkpt lat="45.27736" lon="5.65317">
        <ele>272</ele>
        <time>2014-05-08T13:19:33Z</time>
      </trkpt>
      <trkpt lat="45.27745" lon="5.65309">
        <ele>269</ele>
        <time>2014-05-08T13:19:37Z</time>
      </trkpt>
      <trkpt lat="45.2775" lon="5.653">
        <ele>265</ele>
        <time>2014-05-08T13:19:41Z</time>
      </trkpt>
      <trkpt lat="45.27763" lon="5.65301">
        <ele>265</ele>
        <time>2014-05-08T13:19:45Z</time>
      </trkpt>
      <trkpt lat="45.27772" lon="5.65301">
        <ele>267</ele>
        <time>2014-05-08T13:19:49Z</time>
      </trkpt>
      <trkpt lat="45.27777" lon="5.65283">
        <ele>267</ele>
        <time>2014-05-08T13:19:53Z</time>
      </trkpt>
      <trkpt lat="45.27784" lon="5.65262">
        <ele>257</ele>
        <time>2014-05-08T13:19:57Z</time>
      </trkpt>
      <trkpt lat="45.27784" lon="5.65251">
        <ele>256</ele>
        <time>2014-05-08T13:20:01Z</time>
      </trkpt>
      <trkpt lat="45.27784" lon="5.65229">
        <ele>256</ele>
        <time>2014-05-08T13:20:05Z</time>
      </trkpt>
      <trkpt lat="45.27786" lon="5.65217">
        <ele>255</ele>
        <time>2014-05-08T13:20:09Z</time>
      </trkpt>
      <trkpt lat="45.27784" lon="5.65218">
        <ele>256</ele>
        <time>2014-05-08T13:20:13Z</time>
      </trkpt>
      <trkpt lat="45.27776" lon="5.65214">
        <ele>251</ele>
        <time>2014-05-08T13:20:17Z</time>
      </trkpt>
      <trkpt lat="45.27737" lon="5.65206">
        <ele>245</ele>
        <time>2014-05-08T13:20:21Z</time>
      </trkpt>
      <trkpt lat="45.27709" lon="5.65199">
        <ele>241</ele>
        <time>2014-05-08T13:20:25Z</time>
      </trkpt>
      <trkpt lat="45.27686" lon="5.65203">
        <ele>239</ele>
        <time>2014-05-08T13:20:29Z</time>
      </trkpt>
      <trkpt lat="45.27676" lon="5.65224">
        <ele>240</ele>
        <time>2014-05-08T13:20:33Z</time>
      </trkpt>
      <trkpt lat="45.27659" lon="5.65237">
        <ele>239</ele>
        <time>2014-05-08T13:20:37Z</time>
      </trkpt>
      <trkpt lat="45.27641" lon="5.65231">
        <ele>237</ele>
        <time>2014-05-08T13:20:41Z</time>
      </trkpt>
      <trkpt lat="45.27622" lon="5.65203">
        <ele>235</ele>
        <time>2014-05-08T13:20:45Z</time>
      </trkpt>
      <trkpt lat="45.27616" lon="5.65191">
        <ele>233</ele>
        <time>2014-05-08T13:20:49Z</time>
      </trkpt>
      <trkpt lat="45.27616" lon="5.65191">
        <ele>234</ele>
        <time>2014-05-08T13:20:53Z</time>
      </trkpt>
      <trkpt lat="45.27617" lon="5.65193">
        <ele>234</ele>
        <time>2014-05-08T13:20:57Z</time>
      </trkpt>
      <trkpt lat="45.27605" lon="5.65196">
        <ele>230</ele>
        <time>2014-05-08T13:21:01Z</time>
      </trkpt>
      <trkpt lat="45.27592" lon="5.65225">
        <ele>228</ele>
        <time>2014-05-08T13:21:05Z</time>
      </trkpt>
      <trkpt lat="45.2758" lon="5.65256">
        <ele>226</ele>
        <time>2014-05-08T13:21:09Z</time>
      </trkpt>
      <trkpt lat="45.27565" lon="5.65296">
        <ele>224</ele>
        <time>2014-05-08T13:21:13Z</time>
      </trkpt>
      <trkpt lat="45.27536" lon="5.6532">
        <ele>221</ele>
        <time>2014-05-08T13:21:17Z</time>
      </trkpt>
      <trkpt lat="45.27502" lon="5.65344">
        <ele>219</ele>
        <time>2014-05-08T13:21:21Z</time>
      </trkpt>
      <trkpt lat="45.27475" lon="5.65379">
        <ele>216</ele>
        <time>2014-05-08T13:21:25Z</time>
      </trkpt>
      <trkpt lat="45.27454" lon="5.65412">
        <ele>210</ele>
        <time>2014-05-08T13:21:29Z</time>
      </trkpt>
      <trkpt lat="45.27422" lon="5.65418">
        <ele>210</ele>
        <time>2014-05-08T13:21:33Z</time>
      </trkpt>
      <trkpt lat="45.27414" lon="5.6542">
        <ele>208</ele>
        <time>2014-05-08T13:21:37Z</time>
      </trkpt>
      <trkpt lat="45.27399" lon="5.65438">
        <ele>207</ele>
        <time>2014-05-08T13:21:41Z</time>
      </trkpt>
      <trkpt lat="45.27389" lon="5.65438">
        <ele>208</ele>
        <time>2014-05-08T13:21:45Z</time>
      </trkpt>
      <trkpt lat="45.27396" lon="5.6543">
        <ele>207</ele>
        <time>2014-05-08T13:21:49Z</time>
      </trkpt>
      <trkpt lat="45.27402" lon="5.65425">
        <ele>207</ele>
        <time>2014-05-08T13:21:53Z</time>
      </trkpt>
      <trkpt lat="45.27402" lon="5.65426">
        <ele>207</ele>
        <time>2014-05-08T13:21:57Z</time>
      </trkpt>
      <trkpt lat="45.27398" lon="5.65402">
        <ele>206</ele>
        <time>2014-05-08T13:22:01Z</time>
      </trkpt>
      <trkpt lat="45.27395" lon="5.65386">
        <ele>206</ele>
        <time>2014-05-08T13:22:05Z</time>
      </trkpt>
      <trkpt lat="45.27388" lon="5.65371">
        <ele>205</ele>
        <time>2014-05-08T13:22:09Z</time>
      </trkpt>
      <trkpt lat="45.27383" lon="5.65378">
        <ele>202</ele>
        <time>2014-05-08T13:22:13Z</time>
      </trkpt>
      <trkpt lat="45.27381" lon="5.65384">
        <ele>201</ele>
        <time>2014-05-08T13:22:17Z</time>
      </trkpt>
      <trkpt lat="45.27376" lon="5.65393">
        <ele>201</ele>
        <time>2014-05-08T13:22:21Z</time>
      </trkpt>
      <trkpt lat="45.27364" lon="5.65406">
        <ele>203</ele>
        <time>2014-05-08T13:22:25Z</time>
      </trkpt>
      <trkpt lat="45.2735" lon="5.65413">
        <ele>203</ele>
        <time>2014-05-08T13:22:29Z</time>
      </trkpt>
      <trkpt lat="45.27344" lon="5.65415">
        <ele>204</ele>
        <time>2014-05-08T13:22:33Z</time>
      </trkpt>
      <trkpt lat="45.27338" lon="5.6541">
        <ele>202</ele>
        <time>2014-05-08T13:22:37Z</time>
      </trkpt>
      <trkpt lat="45.27322" lon="5.65386">
        <ele>200</ele>
        <time>2014-05-08T13:22:41Z</time>
      </trkpt>
      <trkpt lat="45.27305" lon="5.65355">
        <ele>200</ele>
        <time>2014-05-08T13:22:45Z</time>
      </trkpt>
      <trkpt lat="45.2729" lon="5.65316">
        <ele>199</ele>
        <time>2014-05-08T13:22:49Z</time>
      </trkpt>
      <trkpt lat="45.27282" lon="5.65301">
        <ele>196</ele>
        <time>2014-05-08T13:22:53Z</time>
      </trkpt>
      <trkpt lat="45.2726" lon="5.65304">
        <ele>197</ele>
        <time>2014-05-08T13:22:57Z</time>
      </trkpt>
      <trkpt lat="45.2723" lon="5.65298">
        <ele>196</ele>
        <time>2014-05-08T13:23:01Z</time>
      </trkpt>
      <trkpt lat="45.27221" lon="5.65261">
        <ele>196</ele>
        <time>2014-05-08T13:23:05Z</time>
      </trkpt>
      <trkpt lat="45.27216" lon="5.65231">
        <ele>195</ele>
        <time>2014-05-08T13:23:09Z</time>
      </trkpt>
      <trkpt lat="45.27211" lon="5.65207">
        <ele>197</ele>
        <time>2014-05-08T13:23:13Z</time>
      </trkpt>
      <trkpt lat="45.27207" lon="5.65185">
        <ele>194</ele>
        <time>2014-05-08T13:23:17Z</time>
      </trkpt>
      <trkpt lat="45.27205" lon="5.65172">
        <ele>194</ele>
        <time>2014-05-08T13:23:21Z</time>
      </trkpt>
      <trkpt lat="45.27205" lon="5.65176">
        <ele>193</ele>
        <time>2014-05-08T13:23:25Z</time>
      </trkpt>
      <trkpt lat="45.27205" lon="5.65175">
        <ele>193</ele>
        <time>2014-05-08T13:23:29Z</time>
      </trkpt>
      <trkpt lat="45.27201" lon="5.65161">
        <ele>192</ele>
        <time>2014-05-08T13:23:33Z</time>
      </trkpt>
      <trkpt lat="45.27216" lon="5.6516">
        <ele>194</ele>
        <time>2014-05-08T13:23:37Z</time>
      </trkpt>
      <trkpt lat="45.27221" lon="5.65151">
        <ele>193</ele>
        <time>2014-05-08T13:23:41Z</time>
      </trkpt>
      <trkpt lat="45.2723" lon="5.65154">
        <ele>194</ele>
        <time>2014-05-08T13:23:45Z</time>
      </trkpt>
      <trkpt lat="45.27243" lon="5.65147">
        <ele>195</ele>
        <time>2014-05-08T13:23:49Z</time>
      </trkpt>
      <trkpt lat="45.2726" lon="5.65136">
        <ele>195</ele>
        <time>2014-05-08T13:23:53Z</time>
      </trkpt>
      <trkpt lat="45.27277" lon="5.65126">
        <ele>194</ele>
        <time>2014-05-08T13:23:57Z</time>
      </trkpt>
      <trkpt lat="45.27293" lon="5.65115">
        <ele>195</ele>
        <time>2014-05-08T13:24:01Z</time>
      </trkpt>
      <trkpt lat="45.27312" lon="5.65104">
        <ele>192</ele>
        <time>2014-05-08T13:24:05Z</time>
      </trkpt>
      <trkpt lat="45.27329" lon="5.65097">
        <ele>193</ele>
        <time>2014-05-08T13:24:09Z</time>
      </trkpt>
      <trkpt lat="45.27344" lon="5.65089">
        <ele>195</ele>
        <time>2014-05-08T13:24:13Z</time>
      </trkpt>
      <trkpt lat="45.27357" lon="5.65081">
        <ele>195</ele>
        <time>2014-05-08T13:24:17Z</time>
      </trkpt>
      <trkpt lat="45.27371" lon="5.65073">
        <ele>194</ele>
        <time>2014-05-08T13:24:21Z</time>
      </trkpt>
      <trkpt lat="45.2738" lon="5.65062">
        <ele>194</ele>
        <time>2014-05-08T13:24:25Z</time>
      </trkpt>
      <trkpt lat="45.27378" lon="5.65061">
        <ele>194</ele>
        <time>2014-05-08T13:24:29Z</time>
      </trkpt>
    </trkseg>
  </trk>
</gpx>